sensor_id;sensor_type;location;lat;lon;timestamp;pressure;altitude;pressure_sealevel;temperature;humidity
44992;BME280;56865;51.618;7.406;2023-05-22T00:01:33;100658.84;;;34.25;77.92
44992;BME280;56865;51.618;7.406;2023-05-22T00:04:07;100658.16;;;33.97;78.50
44992;BME280;56865;51.618;7.406;2023-05-22T00:06:41;100652.66;;;34.00;78.12
44992;BME280;56865;51.618;7.406;2023-05-22T00:09:13;100659.56;;;33.77;78.74
44992;BME280;56865;51.618;7.406;2023-05-22T00:11:44;100643.41;;;33.82;79.05
44992;BME280;56865;51.618;7.406;2023-05-22T00:14:15;100658.47;;;33.43;79.90
44992;BME280;56865;51.618;7.406;2023-05-22T00:16:46;100652.44;;;33.53;79.73
44992;BME280;56865;51.618;7.406;2023-05-22T00:19:21;100657.81;;;33.52;79.20
44992;BME280;56865;51.618;7.406;2023-05-22T00:21:52;100651.66;;;33.64;79.23
44992;BME280;56865;51.618;7.406;2023-05-22T00:24:23;100653.66;;;33.61;79.26
44992;BME280;56865;51.618;7.406;2023-05-22T00:26:54;100645.41;;;33.65;79.18
44992;BME280;56865;51.618;7.406;2023-05-22T00:29:25;100645.50;;;33.77;78.95
44992;BME280;56865;51.618;7.406;2023-05-22T00:31:56;100645.72;;;33.61;79.31
44992;BME280;56865;51.618;7.406;2023-05-22T00:34:31;100642.56;;;33.56;79.65
44992;BME280;56865;51.618;7.406;2023-05-22T00:37:03;100641.41;;;33.47;79.81
44992;BME280;56865;51.618;7.406;2023-05-22T00:39:34;100642.59;;;33.43;79.92
44992;BME280;56865;51.618;7.406;2023-05-22T00:42:05;100641.53;;;33.45;79.41
44992;BME280;56865;51.618;7.406;2023-05-22T00:44:37;100643.63;;;33.27;79.25
44992;BME280;56865;51.618;7.406;2023-05-22T00:47:08;100635.16;;;33.22;79.40
44992;BME280;56865;51.618;7.406;2023-05-22T00:49:42;100637.59;;;33.25;79.63
44992;BME280;56865;51.618;7.406;2023-05-22T00:52:13;100641.19;;;33.24;79.82
44992;BME280;56865;51.618;7.406;2023-05-22T00:54:43;100635.16;;;33.22;79.30
44992;BME280;56865;51.618;7.406;2023-05-22T00:57:14;100629.78;;;33.24;79.42
44992;BME280;56865;51.618;7.406;2023-05-22T00:59:44;100631.78;;;33.20;79.56
44992;BME280;56865;51.618;7.406;2023-05-22T01:02:14;100628.41;;;33.18;79.49
44992;BME280;56865;51.618;7.406;2023-05-22T01:04:47;100625.47;;;33.10;79.80
44992;BME280;56865;51.618;7.406;2023-05-22T01:07:18;100626.19;;;33.12;79.02
44992;BME280;56865;51.618;7.406;2023-05-22T01:09:47;100627.97;;;33.24;78.91
44992;BME280;56865;51.618;7.406;2023-05-22T01:12:30;100625.88;;;33.42;78.61
44992;BME280;56865;51.618;7.406;2023-05-22T01:15:08;100625.44;;;33.48;78.80
44992;BME280;56865;51.618;7.406;2023-05-22T01:17:45;100621.22;;;33.46;79.19
44992;BME280;56865;51.618;7.406;2023-05-22T01:20:25;100620.00;;;33.38;78.01
44992;BME280;56865;51.618;7.406;2023-05-22T01:26:12;100614.25;;;33.06;79.26
44992;BME280;56865;51.618;7.406;2023-05-22T01:29:09;100614.25;;;33.19;78.71
44992;BME280;56865;51.618;7.406;2023-05-22T01:31:44;100624.81;;;33.06;78.92
44992;BME280;56865;51.618;7.406;2023-05-22T01:34:17;100621.66;;;33.01;79.36
44992;BME280;56865;51.618;7.406;2023-05-22T01:36:49;100619.31;;;32.96;79.45
44992;BME280;56865;51.618;7.406;2023-05-22T01:39:21;100617.19;;;33.01;79.33
44992;BME280;56865;51.618;7.406;2023-05-22T01:41:53;100612.56;;;32.92;78.83
44992;BME280;56865;51.618;7.406;2023-05-22T01:44:23;100617.09;;;32.90;79.44
44992;BME280;56865;51.618;7.406;2023-05-22T01:46:55;100620.19;;;33.10;79.48
44992;BME280;56865;51.618;7.406;2023-05-22T01:49:31;100621.00;;;32.97;79.07
44992;BME280;56865;51.618;7.406;2023-05-22T01:52:06;100623.00;;;32.94;79.52
44992;BME280;56865;51.618;7.406;2023-05-22T01:54:42;100617.19;;;33.01;79.51
44992;BME280;56865;51.618;7.406;2023-05-22T01:57:18;100629.09;;;32.41;83.04
44992;BME280;56865;51.618;7.406;2023-05-22T01:59:53;100630.81;;;32.95;80.22
44992;BME280;56865;51.618;7.406;2023-05-22T02:02:27;100625.66;;;32.94;79.43
44992;BME280;56865;51.618;7.406;2023-05-22T02:04:59;100631.47;;;33.12;79.45
44992;BME280;56865;51.618;7.406;2023-05-22T02:07:31;100455.56;;;29.89;100.00
44992;BME280;56865;51.618;7.406;2023-05-22T02:10:01;100604.59;;;31.70;100.00
44992;BME280;56865;51.618;7.406;2023-05-22T02:12:32;100622.63;;;32.72;100.00
44992;BME280;56865;51.618;7.406;2023-05-22T02:15:03;100621.19;;;32.94;100.00
44992;BME280;56865;51.618;7.406;2023-05-22T02:17:38;100625.84;;;32.90;100.00
44992;BME280;56865;51.618;7.406;2023-05-22T02:20:12;100625.66;;;32.94;100.00
44992;BME280;56865;51.618;7.406;2023-05-22T02:22:44;100626.94;;;33.14;100.00
44992;BME280;56865;51.618;7.406;2023-05-22T02:25:15;100630.94;;;33.19;99.31
44992;BME280;56865;51.618;7.406;2023-05-22T02:27:46;100617.63;;;33.21;98.35
44992;BME280;56865;51.618;7.406;2023-05-22T02:30:16;100620.69;;;33.15;98.16
44992;BME280;56865;51.618;7.406;2023-05-22T02:32:49;100621.00;;;33.23;98.38
44992;BME280;56865;51.618;7.406;2023-05-22T02:35:20;100613.81;;;33.25;97.33
44992;BME280;56865;51.618;7.406;2023-05-22T02:37:50;100617.84;;;33.18;97.26
44992;BME280;56865;51.618;7.406;2023-05-22T02:40:20;100610.56;;;33.09;97.60
44992;BME280;56865;51.618;7.406;2023-05-22T02:42:50;100611.81;;;33.03;96.56
44992;BME280;56865;51.618;7.406;2023-05-22T02:45:20;100600.81;;;32.96;96.48
44992;BME280;56865;51.618;7.406;2023-05-22T02:47:53;100598.19;;;32.96;96.13
44992;BME280;56865;51.618;7.406;2023-05-22T02:50:23;100595.88;;;33.04;96.45
44992;BME280;56865;51.618;7.406;2023-05-22T02:52:53;100591.44;;;32.92;95.63
44992;BME280;56865;51.618;7.406;2023-05-22T02:55:23;100589.31;;;32.97;95.80
44992;BME280;56865;51.618;7.406;2023-05-22T02:57:53;100591.41;;;33.18;95.06
44992;BME280;56865;51.618;7.406;2023-05-22T03:00:23;100578.09;;;33.19;94.90
44992;BME280;56865;51.618;7.406;2023-05-22T03:02:55;100582.78;;;33.29;94.17
44992;BME280;56865;51.618;7.406;2023-05-22T03:05:25;100581.59;;;33.20;94.78
44992;BME280;56865;51.618;7.406;2023-05-22T03:07:55;100590.69;;;33.42;94.73
44992;BME280;56865;51.618;7.406;2023-05-22T03:10:25;100584.13;;;33.09;94.80
44992;BME280;56865;51.618;7.406;2023-05-22T03:12:55;100588.47;;;33.22;94.11
44992;BME280;56865;51.618;7.406;2023-05-22T03:15:25;100583.28;;;33.21;93.72
44992;BME280;56865;51.618;7.406;2023-05-22T03:17:58;100584.69;;;33.01;94.26
44992;BME280;56865;51.618;7.406;2023-05-22T03:20:28;100586.16;;;32.92;94.62
44992;BME280;56865;51.618;7.406;2023-05-22T03:22:58;100585.28;;;32.92;93.77
44992;BME280;56865;51.618;7.406;2023-05-22T03:25:28;100578.88;;;32.96;93.82
44992;BME280;56865;51.618;7.406;2023-05-22T03:27:58;100590.38;;;32.95;93.60
44992;BME280;56865;51.618;7.406;2023-05-22T03:30:28;100578.13;;;32.81;94.39
44992;BME280;56865;51.618;7.406;2023-05-22T03:33:00;100570.91;;;32.83;93.68
44992;BME280;56865;51.618;7.406;2023-05-22T03:35:30;100579.19;;;32.91;94.65
44992;BME280;56865;51.618;7.406;2023-05-22T03:38:00;100568.06;;;32.99;93.76
44992;BME280;56865;51.618;7.406;2023-05-22T03:40:30;100565.13;;;33.29;93.53
44992;BME280;56865;51.618;7.406;2023-05-22T03:43:00;100567.97;;;33.00;92.93
44992;BME280;56865;51.618;7.406;2023-05-22T03:45:30;100569.34;;;33.32;93.62
44992;BME280;56865;51.618;7.406;2023-05-22T03:48:03;100570.50;;;33.41;93.13
44992;BME280;56865;51.618;7.406;2023-05-22T03:50:33;100576.00;;;33.12;92.66
44992;BME280;56865;51.618;7.406;2023-05-22T03:53:03;100574.94;;;33.14;92.95
44992;BME280;56865;51.618;7.406;2023-05-22T03:55:33;100571.34;;;33.02;92.49
44992;BME280;56865;51.618;7.406;2023-05-22T03:58:03;100575.34;;;32.95;91.97
44992;BME280;56865;51.618;7.406;2023-05-22T04:00:33;100581.81;;;32.78;92.58
44992;BME280;56865;51.618;7.406;2023-05-22T04:03:07;100571.94;;;32.67;92.74
44992;BME280;56865;51.618;7.406;2023-05-22T04:05:38;100568.63;;;32.78;92.73
44992;BME280;56865;51.618;7.406;2023-05-22T04:08:08;100569.94;;;32.71;92.68
44992;BME280;56865;51.618;7.406;2023-05-22T04:10:38;100572.31;;;32.88;92.33
44992;BME280;56865;51.618;7.406;2023-05-22T04:13:13;100566.16;;;32.88;93.08
44992;BME280;56865;51.618;7.406;2023-05-22T04:15:43;100564.00;;;32.67;93.10
44992;BME280;56865;51.618;7.406;2023-05-22T04:18:18;100567.59;;;32.66;93.35
44992;BME280;56865;51.618;7.406;2023-05-22T04:20:48;100565.59;;;32.02;97.43
44992;BME280;56865;51.618;7.406;2023-05-22T04:23:18;100556.31;;;31.11;98.82
44992;BME280;56865;51.618;7.406;2023-05-22T04:25:48;100556.28;;;30.52;100.00
44992;BME280;56865;51.618;7.406;2023-05-22T04:28:18;100569.59;;;31.95;96.04
44992;BME280;56865;51.618;7.406;2023-05-22T04:30:50;100568.34;;;32.01;99.22
44992;BME280;56865;51.618;7.406;2023-05-22T04:33:22;100564.00;;;32.67;95.66
44992;BME280;56865;51.618;7.406;2023-05-22T04:35:54;100569.72;;;32.61;93.94
44992;BME280;56865;51.618;7.406;2023-05-22T04:38:24;100565.09;;;32.78;93.83
44992;BME280;56865;51.618;7.406;2023-05-22T04:40:54;100561.63;;;32.77;93.46
44992;BME280;56865;51.618;7.406;2023-05-22T04:43:26;100564.81;;;32.82;94.72
44992;BME280;56865;51.618;7.406;2023-05-22T04:45:58;100567.03;;;32.76;95.55
44992;BME280;56865;51.618;7.406;2023-05-22T04:48:30;100562.31;;;32.66;94.61
44992;BME280;56865;51.618;7.406;2023-05-22T04:51:01;100557.56;;;32.58;96.30
44992;BME280;56865;51.618;7.406;2023-05-22T04:53:32;100564.91;;;32.81;95.73
44992;BME280;56865;51.618;7.406;2023-05-22T04:56:05;100559.63;;;33.06;94.87
44992;BME280;56865;51.618;7.406;2023-05-22T04:58:38;100556.75;;;32.97;95.26
44992;BME280;56865;51.618;7.406;2023-05-22T05:01:08;100554.53;;;32.90;95.86
44992;BME280;56865;51.618;7.406;2023-05-22T05:03:41;100544.31;;;32.99;96.23
44992;BME280;56865;51.618;7.406;2023-05-22T05:06:11;100550.88;;;33.06;95.88
44992;BME280;56865;51.618;7.406;2023-05-22T05:08:43;100552.44;;;33.09;95.67
44992;BME280;56865;51.618;7.406;2023-05-22T05:11:13;100562.16;;;33.21;94.90
44992;BME280;56865;51.618;7.406;2023-05-22T05:13:44;100563.75;;;33.24;95.79
44992;BME280;56865;51.618;7.406;2023-05-22T05:16:14;100561.81;;;33.26;96.15
44992;BME280;56865;51.618;7.406;2023-05-22T05:18:47;100561.28;;;33.20;95.55
44992;BME280;56865;51.618;7.406;2023-05-22T05:21:17;100555.81;;;33.24;96.15
44992;BME280;56865;51.618;7.406;2023-05-22T05:23:47;100564.28;;;33.29;96.47
44992;BME280;56865;51.618;7.406;2023-05-22T05:26:17;100565.19;;;33.28;96.81
44992;BME280;56865;51.618;7.406;2023-05-22T05:28:49;100567.00;;;33.27;96.36
44992;BME280;56865;51.618;7.406;2023-05-22T05:31:20;100569.56;;;33.29;96.37
44992;BME280;56865;51.618;7.406;2023-05-22T05:33:52;100573.03;;;33.29;96.83
44992;BME280;56865;51.618;7.406;2023-05-22T05:36:24;100577.16;;;33.46;95.56
44992;BME280;56865;51.618;7.406;2023-05-22T05:38:54;100575.41;;;33.58;95.09
44992;BME280;56865;51.618;7.406;2023-05-22T05:41:25;100580.72;;;33.58;95.94
44992;BME280;56865;51.618;7.406;2023-05-22T05:43:55;100581.66;;;33.57;94.14
44992;BME280;56865;51.618;7.406;2023-05-22T05:46:27;100580.13;;;33.42;94.74
44992;BME280;56865;51.618;7.406;2023-05-22T05:48:59;100576.59;;;33.54;94.29
44992;BME280;56865;51.618;7.406;2023-05-22T05:51:30;100586.78;;;33.47;95.73
44992;BME280;56865;51.618;7.406;2023-05-22T05:54:00;100590.00;;;33.64;93.96
44992;BME280;56865;51.618;7.406;2023-05-22T05:56:30;100587.19;;;33.54;95.04
44992;BME280;56865;51.618;7.406;2023-05-22T05:59:00;100598.16;;;33.61;94.50
44992;BME280;56865;51.618;7.406;2023-05-22T06:01:33;100595.81;;;33.69;94.45
44992;BME280;56865;51.618;7.406;2023-05-22T06:04:07;100596.88;;;33.66;94.36
44992;BME280;56865;51.618;7.406;2023-05-22T06:06:37;100589.47;;;33.72;94.65
44992;BME280;56865;51.618;7.406;2023-05-22T06:09:08;100593.38;;;33.66;94.30
44992;BME280;56865;51.618;7.406;2023-05-22T06:11:38;100593.16;;;33.69;94.31
44992;BME280;56865;51.618;7.406;2023-05-22T06:14:08;100596.22;;;33.76;95.33
44992;BME280;56865;51.618;7.406;2023-05-22T06:16:38;100598.63;;;33.92;96.42
44992;BME280;56865;51.618;7.406;2023-05-22T06:19:11;100603.22;;;34.14;94.47
44992;BME280;56865;51.618;7.406;2023-05-22T06:21:41;100606.84;;;34.24;93.86
44992;BME280;56865;51.618;7.406;2023-05-22T06:24:11;100600.56;;;34.38;93.67
44992;BME280;56865;51.618;7.406;2023-05-22T06:26:41;100604.53;;;34.68;94.11
44992;BME280;56865;51.618;7.406;2023-05-22T06:29:11;100604.00;;;34.63;93.29
44992;BME280;56865;51.618;7.406;2023-05-22T06:31:42;100604.78;;;34.41;94.69
44992;BME280;56865;51.618;7.406;2023-05-22T06:34:14;100607.69;;;34.49;96.14
44992;BME280;56865;51.618;7.406;2023-05-22T06:36:45;100606.97;;;34.47;94.26
44992;BME280;56865;51.618;7.406;2023-05-22T06:39:16;100608.84;;;34.69;93.77
44992;BME280;56865;51.618;7.406;2023-05-22T06:41:46;100608.63;;;34.83;94.39
44992;BME280;56865;51.618;7.406;2023-05-22T06:44:16;100613.38;;;34.56;92.53
44992;BME280;56865;51.618;7.406;2023-05-22T06:46:46;100610.00;;;35.01;92.90
44992;BME280;56865;51.618;7.406;2023-05-22T06:49:18;100617.75;;;35.04;92.04
44992;BME280;56865;51.618;7.406;2023-05-22T06:51:48;100627.88;;;35.21;93.07
44992;BME280;56865;51.618;7.406;2023-05-22T06:54:18;100621.13;;;35.17;91.23
44992;BME280;56865;51.618;7.406;2023-05-22T06:56:47;100622.94;;;35.28;91.94
44992;BME280;56865;51.618;7.406;2023-05-22T06:59:17;100619.22;;;35.53;92.06
44992;BME280;56865;51.618;7.406;2023-05-22T07:01:47;100619.59;;;35.49;90.83
44992;BME280;56865;51.618;7.406;2023-05-22T07:04:19;100616.94;;;35.49;92.71
44992;BME280;56865;51.618;7.406;2023-05-22T07:06:49;100623.03;;;35.83;90.96
44992;BME280;56865;51.618;7.406;2023-05-22T07:09:19;100630.19;;;35.94;89.87
44992;BME280;56865;51.618;7.406;2023-05-22T07:11:48;100621.50;;;35.69;90.40
44992;BME280;56865;51.618;7.406;2023-05-22T07:14:18;100618.53;;;35.40;90.91
44992;BME280;56865;51.618;7.406;2023-05-22T07:16:48;100611.25;;;35.30;90.47
44992;BME280;56865;51.618;7.406;2023-05-22T07:19:20;100615.97;;;35.50;90.20
44992;BME280;56865;51.618;7.406;2023-05-22T07:21:50;100622.78;;;35.86;89.99
44992;BME280;56865;51.618;7.406;2023-05-22T07:24:19;100624.97;;;35.70;88.94
44992;BME280;56865;51.618;7.406;2023-05-22T07:26:49;100633.69;;;35.60;89.34
44992;BME280;56865;51.618;7.406;2023-05-22T07:29:19;100622.25;;;35.60;90.83
44992;BME280;56865;51.618;7.406;2023-05-22T07:31:49;100627.38;;;35.95;89.65
44992;BME280;56865;51.618;7.406;2023-05-22T07:34:22;100634.41;;;36.29;89.41
44992;BME280;56865;51.618;7.406;2023-05-22T07:36:57;100627.72;;;36.46;88.03
44992;BME280;56865;51.618;7.406;2023-05-22T07:39:27;100633.84;;;36.47;87.63
44992;BME280;56865;51.618;7.406;2023-05-22T07:41:56;100631.03;;;36.59;88.76
44992;BME280;56865;51.618;7.406;2023-05-22T07:44:27;100629.94;;;36.83;87.89
44992;BME280;56865;51.618;7.406;2023-05-22T07:46:57;100630.66;;;36.85;88.21
44992;BME280;56865;51.618;7.406;2023-05-22T07:49:30;100628.94;;;36.84;87.08
44992;BME280;56865;51.618;7.406;2023-05-22T07:52:00;100629.47;;;36.89;86.31
44992;BME280;56865;51.618;7.406;2023-05-22T07:54:29;100635.25;;;36.83;86.44
44992;BME280;56865;51.618;7.406;2023-05-22T07:56:59;100640.69;;;36.82;86.59
44992;BME280;56865;51.618;7.406;2023-05-22T07:59:29;100631.56;;;36.96;86.44
44992;BME280;56865;51.618;7.406;2023-05-22T08:01:59;100638.47;;;36.98;87.51
44992;BME280;56865;51.618;7.406;2023-05-22T08:04:32;100633.53;;;36.94;87.07
44992;BME280;56865;51.618;7.406;2023-05-22T08:07:02;100640.25;;;36.98;86.66
44992;BME280;56865;51.618;7.406;2023-05-22T08:09:31;100635.59;;;36.90;86.58
44992;BME280;56865;51.618;7.406;2023-05-22T08:12:01;100644.16;;;36.94;86.07
44992;BME280;56865;51.618;7.406;2023-05-22T08:14:33;100643.00;;;36.86;85.93
44992;BME280;56865;51.618;7.406;2023-05-22T08:17:02;100641.75;;;36.90;87.41
44992;BME280;56865;51.618;7.406;2023-05-22T08:19:35;100641.75;;;36.90;87.13
44992;BME280;56865;51.618;7.406;2023-05-22T08:22:05;100639.84;;;37.23;85.81
44992;BME280;56865;51.618;7.406;2023-05-22T08:24:34;100647.09;;;37.21;84.66
44992;BME280;56865;51.618;7.406;2023-05-22T08:27:04;100641.47;;;37.15;84.98
44992;BME280;56865;51.618;7.406;2023-05-22T08:29:34;100639.72;;;37.25;84.19
44992;BME280;56865;51.618;7.406;2023-05-22T08:32:04;100641.97;;;37.30;84.33
44992;BME280;56865;51.618;7.406;2023-05-22T08:34:37;100642.31;;;37.15;86.01
44992;BME280;56865;51.618;7.406;2023-05-22T08:37:07;100643.31;;;37.45;84.46
44992;BME280;56865;51.618;7.406;2023-05-22T08:39:37;100641.53;;;37.55;85.85
44992;BME280;56865;51.618;7.406;2023-05-22T08:42:07;100646.50;;;37.70;84.97
44992;BME280;56865;51.618;7.406;2023-05-22T08:44:37;100640.72;;;37.65;83.64
44992;BME280;56865;51.618;7.406;2023-05-22T08:47:09;100647.97;;;37.53;84.50
44992;BME280;56865;51.618;7.406;2023-05-22T08:49:42;100645.06;;;37.66;85.10
44992;BME280;56865;51.618;7.406;2023-05-22T08:52:13;100644.84;;;37.88;84.42
44992;BME280;56865;51.618;7.406;2023-05-22T08:54:48;100650.00;;;37.39;84.17
44992;BME280;56865;51.618;7.406;2023-05-22T08:57:20;100641.47;;;37.77;83.44
44992;BME280;56865;51.618;7.406;2023-05-22T08:59:50;100647.69;;;37.97;83.60
44992;BME280;56865;51.618;7.406;2023-05-22T09:02:21;100640.31;;;37.69;83.52
44992;BME280;56865;51.618;7.406;2023-05-22T09:04:54;100645.72;;;37.99;84.47
44992;BME280;56865;51.618;7.406;2023-05-22T09:07:27;100642.91;;;37.91;84.51
44992;BME280;56865;51.618;7.406;2023-05-22T09:09:57;100637.50;;;37.71;84.08
44992;BME280;56865;51.618;7.406;2023-05-22T09:12:30;100640.56;;;37.56;83.31
44992;BME280;56865;51.618;7.406;2023-05-22T09:15:06;100636.50;;;37.62;83.45
44992;BME280;56865;51.618;7.406;2023-05-22T09:17:37;100634.41;;;37.66;85.03
44992;BME280;56865;51.618;7.406;2023-05-22T09:20:11;100634.38;;;37.56;84.73
44992;BME280;56865;51.618;7.406;2023-05-22T09:22:41;100627.97;;;37.68;84.03
44992;BME280;56865;51.618;7.406;2023-05-22T09:25:14;100627.88;;;37.80;82.50
44992;BME280;56865;51.618;7.406;2023-05-22T09:27:46;100632.28;;;37.91;84.77
44992;BME280;56865;51.618;7.406;2023-05-22T09:30:16;100635.00;;;37.38;82.76
44992;BME280;56865;51.618;7.406;2023-05-22T09:32:47;100642.63;;;37.94;83.21
44992;BME280;56865;51.618;7.406;2023-05-22T09:35:20;100637.47;;;38.02;83.00
44992;BME280;56865;51.618;7.406;2023-05-22T09:37:49;100635.09;;;38.09;81.61
44992;BME280;56865;51.618;7.406;2023-05-22T09:40:19;100633.28;;;38.09;82.03
44992;BME280;56865;51.618;7.406;2023-05-22T09:42:50;100628.09;;;38.17;82.82
44992;BME280;56865;51.618;7.406;2023-05-22T09:45:20;100633.97;;;38.21;82.74
44992;BME280;56865;51.618;7.406;2023-05-22T09:47:50;100636.66;;;38.50;82.87
44992;BME280;56865;51.618;7.406;2023-05-22T09:50:23;100633.88;;;38.42;82.42
44992;BME280;56865;51.618;7.406;2023-05-22T09:52:52;100634.13;;;38.39;80.29
44992;BME280;56865;51.618;7.406;2023-05-22T09:55:22;100633.41;;;38.66;79.54
44992;BME280;56865;51.618;7.406;2023-05-22T09:57:52;100631.88;;;38.64;81.31
44992;BME280;56865;51.618;7.406;2023-05-22T10:00:23;100629.38;;;38.52;82.13
44992;BME280;56865;51.618;7.406;2023-05-22T10:02:56;100629.06;;;38.65;82.49
44992;BME280;56865;51.618;7.406;2023-05-22T10:05:32;100629.19;;;38.74;81.58
44992;BME280;56865;51.618;7.406;2023-05-22T10:08:04;100623.63;;;38.57;81.82
44992;BME280;56865;51.618;7.406;2023-05-22T10:10:37;100623.72;;;38.95;81.47
44992;BME280;56865;51.618;7.406;2023-05-22T10:13:08;100621.66;;;39.16;79.38
44992;BME280;56865;51.618;7.406;2023-05-22T10:15:39;100622.66;;;39.15;78.16
44992;BME280;56865;51.618;7.406;2023-05-22T10:18:09;100625.69;;;39.40;80.49
44992;BME280;56865;51.618;7.406;2023-05-22T10:20:43;100633.31;;;39.15;77.24
44992;BME280;56865;51.618;7.406;2023-05-22T10:23:13;100634.53;;;39.31;77.86
44992;BME280;56865;51.618;7.406;2023-05-22T10:25:43;100625.69;;;39.40;77.26
44992;BME280;56865;51.618;7.406;2023-05-22T10:28:13;100631.72;;;39.70;77.00
44992;BME280;56865;51.618;7.406;2023-05-22T10:30:45;100626.50;;;39.69;77.77
44992;BME280;56865;51.618;7.406;2023-05-22T10:33:17;100625.75;;;39.11;77.06
44992;BME280;56865;51.618;7.406;2023-05-22T10:35:53;100624.69;;;38.94;79.55
44992;BME280;56865;51.618;7.406;2023-05-22T10:38:29;100628.31;;;39.03;78.84
44992;BME280;56865;51.618;7.406;2023-05-22T10:41:04;100624.91;;;39.20;78.25
44992;BME280;56865;51.618;7.406;2023-05-22T10:43:37;100619.16;;;39.25;77.95
44992;BME280;56865;51.618;7.406;2023-05-22T10:46:07;100622.84;;;39.42;78.47
44992;BME280;56865;51.618;7.406;2023-05-22T10:48:37;100612.81;;;39.26;78.34
44992;BME280;56865;51.618;7.406;2023-05-22T10:51:10;100613.19;;;39.31;76.34
44992;BME280;56865;51.618;7.406;2023-05-22T10:53:41;100612.06;;;39.89;76.16
44992;BME280;56865;51.618;7.406;2023-05-22T10:56:11;100617.78;;;39.76;73.97
44992;BME280;56865;51.618;7.406;2023-05-22T10:58:42;100616.53;;;39.71;76.71
44992;BME280;56865;51.618;7.406;2023-05-22T11:01:13;100617.78;;;39.76;76.50
44992;BME280;56865;51.618;7.406;2023-05-22T11:03:53;100614.56;;;39.91;76.38
44992;BME280;56865;51.618;7.406;2023-05-22T11:06:33;100615.19;;;39.85;74.02
44992;BME280;56865;51.618;7.406;2023-05-22T11:09:16;100609.06;;;39.74;74.09
44992;BME280;56865;51.618;7.406;2023-05-22T11:11:46;100607.94;;;39.95;75.93
44992;BME280;56865;51.618;7.406;2023-05-22T11:14:16;100602.31;;;40.16;75.20
44992;BME280;56865;51.618;7.406;2023-05-22T11:16:46;100609.84;;;40.03;74.92
44992;BME280;56865;51.618;7.406;2023-05-22T11:19:16;100610.25;;;40.08;74.45
44992;BME280;56865;51.618;7.406;2023-05-22T11:21:52;100606.06;;;40.05;72.96
44992;BME280;56865;51.618;7.406;2023-05-22T11:24:31;100603.28;;;39.79;73.91
44992;BME280;56865;51.618;7.406;2023-05-22T11:27:01;100611.47;;;39.95;73.96
44992;BME280;56865;51.618;7.406;2023-05-22T11:29:33;100606.66;;;39.99;73.66
44992;BME280;56865;51.618;7.406;2023-05-22T11:32:03;100603.38;;;40.23;74.87
44992;BME280;56865;51.618;7.406;2023-05-22T11:34:33;100597.34;;;40.21;74.56
44992;BME280;56865;51.618;7.406;2023-05-22T11:37:06;100599.84;;;40.05;72.62
44992;BME280;56865;51.618;7.406;2023-05-22T11:39:36;100594.44;;;40.33;73.19
44992;BME280;56865;51.618;7.406;2023-05-22T11:42:05;100584.16;;;40.20;73.85
44992;BME280;56865;51.618;7.406;2023-05-22T11:44:37;100595.34;;;40.59;73.48
44992;BME280;56865;51.618;7.406;2023-05-22T11:47:10;100593.34;;;40.61;74.36
44992;BME280;56865;51.618;7.406;2023-05-22T11:49:40;100586.72;;;40.66;73.81
44992;BME280;56865;51.618;7.406;2023-05-22T11:52:14;100585.16;;;40.63;71.64
44992;BME280;56865;51.618;7.406;2023-05-22T11:54:44;100592.75;;;40.50;73.41
44992;BME280;56865;51.618;7.406;2023-05-22T11:57:14;100585.50;;;40.42;73.75
44992;BME280;56865;51.618;7.406;2023-05-22T11:59:44;100571.44;;;40.58;74.74
44992;BME280;56865;51.618;7.406;2023-05-22T12:02:14;100585.81;;;40.57;72.85
44992;BME280;56865;51.618;7.406;2023-05-22T12:04:44;100579.19;;;40.69;71.73
44992;BME280;56865;51.618;7.406;2023-05-22T12:07:17;100577.19;;;40.71;73.38
44992;BME280;56865;51.618;7.406;2023-05-22T12:09:47;100588.34;;;40.67;73.86
44992;BME280;56865;51.618;7.406;2023-05-22T12:12:17;100585.50;;;40.60;71.91
44992;BME280;56865;51.618;7.406;2023-05-22T12:14:48;100581.63;;;40.54;74.19
44992;BME280;56865;51.618;7.406;2023-05-22T12:17:18;100584.41;;;40.53;70.10
44992;BME280;56865;51.618;7.406;2023-05-22T12:19:48;100575.13;;;40.57;72.06
44992;BME280;56865;51.618;7.406;2023-05-22T12:22:21;100572.81;;;40.62;72.24
44992;BME280;56865;51.618;7.406;2023-05-22T12:24:55;100573.31;;;40.39;74.52
44992;BME280;56865;51.618;7.406;2023-05-22T12:27:27;100574.25;;;40.12;71.67
44992;BME280;56865;51.618;7.406;2023-05-22T12:29:59;100573.34;;;40.47;72.03
44992;BME280;56865;51.618;7.406;2023-05-22T12:32:36;100577.00;;;40.65;72.66
44992;BME280;56865;51.618;7.406;2023-05-22T12:35:13;100568.41;;;40.35;74.24
44992;BME280;56865;51.618;7.406;2023-05-22T12:37:49;100571.94;;;40.17;71.61
44992;BME280;56865;51.618;7.406;2023-05-22T12:40:19;100572.19;;;40.68;70.19
44992;BME280;56865;51.618;7.406;2023-05-22T12:42:49;100571.03;;;40.71;74.25
44992;BME280;56865;51.618;7.406;2023-05-22T12:45:19;100569.53;;;40.76;73.60
44992;BME280;56865;51.618;7.406;2023-05-22T12:47:49;100570.00;;;40.98;72.96
44992;BME280;56865;51.618;7.406;2023-05-22T12:50:19;100573.78;;;41.14;73.20
44992;BME280;56865;51.618;7.406;2023-05-22T12:52:51;100575.66;;;41.30;72.22
44992;BME280;56865;51.618;7.406;2023-05-22T12:55:21;100565.59;;;40.89;71.00
44992;BME280;56865;51.618;7.406;2023-05-22T12:57:51;100574.06;;;41.10;67.53
44992;BME280;56865;51.618;7.406;2023-05-22T13:00:20;100577.69;;;41.36;69.37
44992;BME280;56865;51.618;7.406;2023-05-22T13:02:50;100583.78;;;41.12;70.22
44992;BME280;56865;51.618;7.406;2023-05-22T13:05:20;100581.06;;;41.03;70.13
44992;BME280;56865;51.618;7.406;2023-05-22T13:07:53;100585.41;;;40.78;71.08
44992;BME280;56865;51.618;7.406;2023-05-22T13:10:23;100579.59;;;40.83;70.18
44992;BME280;56865;51.618;7.406;2023-05-22T13:12:53;100580.59;;;40.82;67.25
44992;BME280;56865;51.618;7.406;2023-05-22T13:15:23;100588.16;;;40.60;70.89